LDSB/BWK METAR and TAF weather

Enter ICAO airport designator
Station Type Date Time Source
LDSB METAR 2021/01/13 12:00 UTC NOAA

LDSB 131200Z 03011KT 9999 FEW060 05/M05 Q1010


Station Type Date Time Source
LDSB Decoded METAR 2021/01/13 12:00 UTC NOAA

Brac, Croatia (LDSB) 43-17-09N 016-40-47E
Jan 13, 2021 - 07:00 AM EST / 2021.01.13 1200 UTC
Wind: from the NNE (030 degrees) at 13 MPH (11 KT):0
Visibility: greater than 7 mile(s):0
Sky conditions: mostly clear
Temperature: 41 F (5 C)
Dew Point: 23 F (-5 C)
Relative Humidity: 48%
Pressure (altimeter): 29.83 in. Hg (1010 hPa)
ob: LDSB 131200Z 03011KT 9999 FEW060 05/M05 Q1010
cycle: 12

Station Type Date Time Source
LDSB TAF 2021/01/13 13:06 UTC NOAA

TAF
AMD LDSB 131301Z 1313/1406 CNL

Example: see airport list